sensor_id;sensor_type;location;lat;lon;timestamp;P1;durP1;ratioP1;P2;durP2;ratioP2
64252;SDS011;50592;52.958;-7.470;2023-03-13T00:01:20;0.15;;;0.10;;
64252;SDS011;50592;52.958;-7.470;2023-03-13T00:04:04;0.30;;;0.10;;
64252;SDS011;50592;52.958;-7.470;2023-03-13T00:06:37;1.15;;;0.10;;
64252;SDS011;50592;52.958;-7.470;2023-03-13T00:09:09;0.15;;;0.10;;
64252;SDS011;50592;52.958;-7.470;2023-03-13T00:11:37;0.20;;;0.10;;
64252;SDS011;50592;52.958;-7.470;2023-03-13T00:14:08;0.57;;;0.20;;
64252;SDS011;50592;52.958;-7.470;2023-03-13T00:16:35;3.28;;;0.10;;
64252;SDS011;50592;52.958;-7.470;2023-03-13T00:19:07;0.60;;;0.20;;
64252;SDS011;50592;52.958;-7.470;2023-03-13T00:21:34;0.98;;;0.10;;
64252;SDS011;50592;52.958;-7.470;2023-03-13T00:24:05;1.35;;;0.10;;
64252;SDS011;50592;52.958;-7.470;2023-03-13T00:26:37;1.15;;;0.25;;
64252;SDS011;50592;52.958;-7.470;2023-03-13T00:29:07;1.40;;;0.10;;
64252;SDS011;50592;52.958;-7.470;2023-03-13T00:31:37;0.40;;;0.10;;
64252;SDS011;50592;52.958;-7.470;2023-03-13T00:34:04;0.90;;;0.13;;
64252;SDS011;50592;52.958;-7.470;2023-03-13T00:36:33;0.32;;;0.03;;
64252;SDS011;50592;52.958;-7.470;2023-03-13T00:39:01;0.20;;;0.10;;
64252;SDS011;50592;52.958;-7.470;2023-03-13T00:41:32;0.75;;;0.20;;
64252;SDS011;50592;52.958;-7.470;2023-03-13T00:43:59;0.73;;;0.00;;
64252;SDS011;50592;52.958;-7.470;2023-03-13T00:46:31;0.08;;;0.00;;
64252;SDS011;50592;52.958;-7.470;2023-03-13T00:49:01;1.02;;;0.20;;
64252;SDS011;50592;52.958;-7.470;2023-03-13T00:51:31;0.55;;;0.15;;
64252;SDS011;50592;52.958;-7.470;2023-03-13T00:54:01;0.43;;;0.10;;
64252;SDS011;50592;52.958;-7.470;2023-03-13T00:56:33;0.30;;;0.20;;
64252;SDS011;50592;52.958;-7.470;2023-03-13T00:59:03;1.38;;;0.10;;
64252;SDS011;50592;52.958;-7.470;2023-03-13T01:01:31;0.32;;;0.10;;
64252;SDS011;50592;52.958;-7.470;2023-03-13T01:04:10;0.98;;;0.25;;
64252;SDS011;50592;52.958;-7.470;2023-03-13T01:06:38;0.47;;;0.20;;
64252;SDS011;50592;52.958;-7.470;2023-03-13T01:09:13;0.90;;;0.20;;
64252;SDS011;50592;52.958;-7.470;2023-03-13T01:11:44;1.55;;;0.20;;
64252;SDS011;50592;52.958;-7.470;2023-03-13T01:14:15;1.38;;;0.30;;
64252;SDS011;50592;52.958;-7.470;2023-03-13T01:16:47;0.50;;;0.20;;
64252;SDS011;50592;52.958;-7.470;2023-03-13T01:19:14;0.05;;;0.00;;
64252;SDS011;50592;52.958;-7.470;2023-03-13T01:21:46;1.10;;;0.00;;
64252;SDS011;50592;52.958;-7.470;2023-03-13T01:24:16;1.00;;;0.20;;
64252;SDS011;50592;52.958;-7.470;2023-03-13T01:26:47;1.30;;;0.20;;
64252;SDS011;50592;52.958;-7.470;2023-03-13T01:29:17;0.85;;;0.40;;
64252;SDS011;50592;52.958;-7.470;2023-03-13T01:31:44;0.57;;;0.20;;
64252;SDS011;50592;52.958;-7.470;2023-03-13T01:34:13;1.35;;;0.20;;
64252;SDS011;50592;52.958;-7.470;2023-03-13T01:36:39;2.10;;;0.40;;
64252;SDS011;50592;52.958;-7.470;2023-03-13T01:39:11;2.30;;;0.40;;
64252;SDS011;50592;52.958;-7.470;2023-03-13T01:41:41;0.75;;;0.20;;
64252;SDS011;50592;52.958;-7.470;2023-03-13T01:44:17;1.08;;;0.30;;
64252;SDS011;50592;52.958;-7.470;2023-03-13T01:46:51;0.82;;;0.20;;
64252;SDS011;50592;52.958;-7.470;2023-03-13T01:49:29;1.85;;;0.20;;
64252;SDS011;50592;52.958;-7.470;2023-03-13T01:52:03;2.25;;;0.20;;
64252;SDS011;50592;52.958;-7.470;2023-03-13T02:00:01;3.38;;;0.40;;
64252;SDS011;50592;52.958;-7.470;2023-03-13T02:02:47;3.97;;;0.43;;
64252;SDS011;50592;52.958;-7.470;2023-03-13T02:05:19;2.40;;;0.52;;
64252;SDS011;50592;52.958;-7.470;2023-03-13T02:10:30;4.25;;;0.70;;
64252;SDS011;50592;52.958;-7.470;2023-03-13T02:13:03;3.53;;;0.68;;
64252;SDS011;50592;52.958;-7.470;2023-03-13T02:15:32;6.07;;;0.70;;
64252;SDS011;50592;52.958;-7.470;2023-03-13T02:18:00;7.13;;;1.35;;
64252;SDS011;50592;52.958;-7.470;2023-03-13T02:20:30;10.02;;;1.40;;
64252;SDS011;50592;52.958;-7.470;2023-03-13T02:23:02;6.07;;;1.27;;
64252;SDS011;50592;52.958;-7.470;2023-03-13T02:25:53;11.73;;;1.80;;
64252;SDS011;50592;52.958;-7.470;2023-03-13T02:28:29;10.15;;;2.22;;
64252;SDS011;50592;52.958;-7.470;2023-03-13T02:31:04;13.82;;;1.98;;
64252;SDS011;50592;52.958;-7.470;2023-03-13T02:33:36;9.02;;;1.85;;
64252;SDS011;50592;52.958;-7.470;2023-03-13T02:36:10;17.98;;;2.67;;
64252;SDS011;50592;52.958;-7.470;2023-03-13T02:38:43;16.35;;;2.72;;
64252;SDS011;50592;52.958;-7.470;2023-03-13T02:41:20;13.18;;;2.50;;
64252;SDS011;50592;52.958;-7.470;2023-03-13T02:43:52;21.42;;;2.90;;
64252;SDS011;50592;52.958;-7.470;2023-03-13T02:46:19;16.52;;;3.05;;
64252;SDS011;50592;52.958;-7.470;2023-03-13T02:48:54;19.58;;;3.05;;
64252;SDS011;50592;52.958;-7.470;2023-03-13T02:51:42;18.90;;;3.63;;
64252;SDS011;50592;52.958;-7.470;2023-03-13T02:54:17;20.95;;;3.17;;
64252;SDS011;50592;52.958;-7.470;2023-03-13T02:56:54;19.60;;;3.08;;
64252;SDS011;50592;52.958;-7.470;2023-03-13T02:59:27;21.92;;;3.33;;
64252;SDS011;50592;52.958;-7.470;2023-03-13T03:01:57;19.40;;;2.88;;
64252;SDS011;50592;52.958;-7.470;2023-03-13T03:04:27;10.50;;;1.83;;
64252;SDS011;50592;52.958;-7.470;2023-03-13T03:06:55;13.55;;;2.17;;
64252;SDS011;50592;52.958;-7.470;2023-03-13T03:09:25;18.67;;;2.30;;
64252;SDS011;50592;52.958;-7.470;2023-03-13T03:11:56;13.25;;;2.15;;
64252;SDS011;50592;52.958;-7.470;2023-03-13T03:14:28;13.93;;;1.90;;
64252;SDS011;50592;52.958;-7.470;2023-03-13T03:16:55;11.43;;;1.67;;
64252;SDS011;50592;52.958;-7.470;2023-03-13T03:19:26;6.65;;;1.25;;
64252;SDS011;50592;52.958;-7.470;2023-03-13T03:21:53;4.40;;;0.82;;
64252;SDS011;50592;52.958;-7.470;2023-03-13T03:24:22;4.25;;;0.70;;
64252;SDS011;50592;52.958;-7.470;2023-03-13T03:26:48;3.50;;;0.60;;
64252;SDS011;50592;52.958;-7.470;2023-03-13T03:29:25;1.95;;;0.20;;
64252;SDS011;50592;52.958;-7.470;2023-03-13T03:31:54;1.50;;;0.30;;
64252;SDS011;50592;52.958;-7.470;2023-03-13T03:34:23;1.08;;;0.30;;
64252;SDS011;50592;52.958;-7.470;2023-03-13T03:36:51;4.95;;;1.02;;
64252;SDS011;50592;52.958;-7.470;2023-03-13T03:39:20;0.17;;;0.10;;
64252;SDS011;50592;52.958;-7.470;2023-03-13T03:41:47;2.72;;;0.40;;
64252;SDS011;50592;52.958;-7.470;2023-03-13T03:44:16;0.77;;;0.15;;
64252;SDS011;50592;52.958;-7.470;2023-03-13T03:47:02;3.38;;;0.30;;
64252;SDS011;50592;52.958;-7.470;2023-03-13T03:49:36;0.25;;;0.10;;
64252;SDS011;50592;52.958;-7.470;2023-03-13T03:52:03;6.78;;;0.25;;
64252;SDS011;50592;52.958;-7.470;2023-03-13T03:54:36;0.95;;;0.20;;
64252;SDS011;50592;52.958;-7.470;2023-03-13T03:57:04;1.08;;;0.22;;
64252;SDS011;50592;52.958;-7.470;2023-03-13T03:59:32;1.40;;;0.30;;
64252;SDS011;50592;52.958;-7.470;2023-03-13T04:02:03;0.90;;;0.20;;
64252;SDS011;50592;52.958;-7.470;2023-03-13T04:04:31;0.90;;;0.20;;
64252;SDS011;50592;52.958;-7.470;2023-03-13T04:07:09;1.88;;;0.40;;
64252;SDS011;50592;52.958;-7.470;2023-03-13T04:09:37;3.60;;;0.40;;
64252;SDS011;50592;52.958;-7.470;2023-03-13T04:12:07;0.88;;;0.20;;
64252;SDS011;50592;52.958;-7.470;2023-03-13T04:14:40;1.95;;;0.30;;
64252;SDS011;50592;52.958;-7.470;2023-03-13T04:17:09;3.05;;;0.50;;
64252;SDS011;50592;52.958;-7.470;2023-03-13T04:19:38;3.95;;;0.55;;
64252;SDS011;50592;52.958;-7.470;2023-03-13T04:22:06;1.13;;;0.30;;
64252;SDS011;50592;52.958;-7.470;2023-03-13T04:24:33;1.33;;;0.20;;
64252;SDS011;50592;52.958;-7.470;2023-03-13T04:27:03;1.85;;;0.38;;
64252;SDS011;50592;52.958;-7.470;2023-03-13T04:29:32;4.25;;;0.40;;
64252;SDS011;50592;52.958;-7.470;2023-03-13T04:32:21;3.78;;;0.52;;
64252;SDS011;50592;52.958;-7.470;2023-03-13T04:35:12;3.80;;;0.50;;
64252;SDS011;50592;52.958;-7.470;2023-03-13T04:37:44;6.45;;;0.60;;
64252;SDS011;50592;52.958;-7.470;2023-03-13T04:40:38;3.70;;;0.60;;
64252;SDS011;50592;52.958;-7.470;2023-03-13T04:43:25;7.20;;;0.90;;
64252;SDS011;50592;52.958;-7.470;2023-03-13T04:46:07;5.90;;;1.08;;
64252;SDS011;50592;52.958;-7.470;2023-03-13T04:49:12;4.38;;;0.93;;
64252;SDS011;50592;52.958;-7.470;2023-03-13T04:51:59;9.75;;;1.58;;
64252;SDS011;50592;52.958;-7.470;2023-03-13T04:54:45;5.68;;;1.02;;
64252;SDS011;50592;52.958;-7.470;2023-03-13T04:57:34;4.13;;;0.60;;
64252;SDS011;50592;52.958;-7.470;2023-03-13T05:00:21;3.08;;;0.65;;
64252;SDS011;50592;52.958;-7.470;2023-03-13T05:03:16;2.42;;;0.32;;
64252;SDS011;50592;52.958;-7.470;2023-03-13T05:06:01;4.95;;;0.40;;
64252;SDS011;50592;52.958;-7.470;2023-03-13T05:08:57;4.65;;;0.50;;
64252;SDS011;50592;52.958;-7.470;2023-03-13T05:11:52;0.82;;;0.20;;
64252;SDS011;50592;52.958;-7.470;2023-03-13T05:14:44;1.67;;;0.30;;
64252;SDS011;50592;52.958;-7.470;2023-03-13T05:17:46;2.45;;;0.28;;
64252;SDS011;50592;52.958;-7.470;2023-03-13T05:20:26;2.20;;;0.20;;
64252;SDS011;50592;52.958;-7.470;2023-03-13T05:23:05;2.00;;;0.20;;
64252;SDS011;50592;52.958;-7.470;2023-03-13T05:25:55;1.13;;;0.20;;
64252;SDS011;50592;52.958;-7.470;2023-03-13T05:28:39;3.00;;;0.40;;
64252;SDS011;50592;52.958;-7.470;2023-03-13T05:31:29;4.50;;;0.40;;
64252;SDS011;50592;52.958;-7.470;2023-03-13T05:34:16;5.15;;;0.43;;
64252;SDS011;50592;52.958;-7.470;2023-03-13T05:37:13;8.27;;;0.73;;
64252;SDS011;50592;52.958;-7.470;2023-03-13T05:39:42;5.78;;;0.50;;
64252;SDS011;50592;52.958;-7.470;2023-03-13T05:42:36;4.68;;;0.80;;
64252;SDS011;50592;52.958;-7.470;2023-03-13T05:45:27;8.88;;;1.08;;
64252;SDS011;50592;52.958;-7.470;2023-03-13T05:48:09;5.60;;;1.13;;
64252;SDS011;50592;52.958;-7.470;2023-03-13T05:51:14;10.27;;;1.50;;
64252;SDS011;50592;52.958;-7.470;2023-03-13T05:54:10;13.95;;;1.77;;
64252;SDS011;50592;52.958;-7.470;2023-03-13T05:57:07;11.35;;;1.83;;
64252;SDS011;50592;52.958;-7.470;2023-03-13T05:59:53;15.05;;;1.80;;
64252;SDS011;50592;52.958;-7.470;2023-03-13T06:05:12;12.07;;;1.95;;
64252;SDS011;50592;52.958;-7.470;2023-03-13T06:07:42;11.57;;;1.98;;
64252;SDS011;50592;52.958;-7.470;2023-03-13T06:10:11;8.30;;;1.58;;
64252;SDS011;50592;52.958;-7.470;2023-03-13T06:12:38;11.70;;;1.40;;
64252;SDS011;50592;52.958;-7.470;2023-03-13T06:15:10;14.40;;;1.75;;
64252;SDS011;50592;52.958;-7.470;2023-03-13T06:17:55;17.45;;;2.28;;
64252;SDS011;50592;52.958;-7.470;2023-03-13T06:20:25;18.30;;;2.15;;
64252;SDS011;50592;52.958;-7.470;2023-03-13T06:22:54;17.40;;;2.40;;
64252;SDS011;50592;52.958;-7.470;2023-03-13T06:25:21;13.23;;;1.88;;
64252;SDS011;50592;52.958;-7.470;2023-03-13T06:27:52;14.07;;;1.95;;
64252;SDS011;50592;52.958;-7.470;2023-03-13T06:30:19;12.20;;;1.27;;
64252;SDS011;50592;52.958;-7.470;2023-03-13T06:32:49;12.18;;;1.52;;
64252;SDS011;50592;52.958;-7.470;2023-03-13T06:35:16;13.18;;;1.63;;
64252;SDS011;50592;52.958;-7.470;2023-03-13T06:37:46;10.43;;;1.42;;
64252;SDS011;50592;52.958;-7.470;2023-03-13T06:40:16;8.55;;;1.33;;
64252;SDS011;50592;52.958;-7.470;2023-03-13T06:42:46;8.02;;;0.90;;
64252;SDS011;50592;52.958;-7.470;2023-03-13T06:45:12;9.13;;;1.85;;
64252;SDS011;50592;52.958;-7.470;2023-03-13T06:47:41;8.10;;;0.90;;
64252;SDS011;50592;52.958;-7.470;2023-03-13T06:50:08;7.97;;;0.98;;
64252;SDS011;50592;52.958;-7.470;2023-03-13T06:52:38;8.32;;;1.67;;
64252;SDS011;50592;52.958;-7.470;2023-03-13T06:55:07;10.05;;;1.20;;
64252;SDS011;50592;52.958;-7.470;2023-03-13T06:57:38;8.18;;;1.25;;
64252;SDS011;50592;52.958;-7.470;2023-03-13T07:00:08;7.82;;;1.08;;
64252;SDS011;50592;52.958;-7.470;2023-03-13T07:02:39;7.60;;;1.42;;
64252;SDS011;50592;52.958;-7.470;2023-03-13T07:05:07;6.07;;;1.02;;
64252;SDS011;50592;52.958;-7.470;2023-03-13T07:07:35;7.45;;;1.05;;
64252;SDS011;50592;52.958;-7.470;2023-03-13T07:10:02;9.05;;;0.90;;
64252;SDS011;50592;52.958;-7.470;2023-03-13T07:12:36;15.00;;;1.25;;
64252;SDS011;50592;52.958;-7.470;2023-03-13T07:15:03;8.55;;;1.35;;
64252;SDS011;50592;52.958;-7.470;2023-03-13T07:17:33;9.35;;;1.20;;
64252;SDS011;50592;52.958;-7.470;2023-03-13T07:19:59;12.82;;;2.25;;
64252;SDS011;50592;52.958;-7.470;2023-03-13T07:22:29;13.18;;;1.70;;
64252;SDS011;50592;52.958;-7.470;2023-03-13T07:24:59;6.05;;;1.30;;
64252;SDS011;50592;52.958;-7.470;2023-03-13T07:27:29;10.15;;;2.30;;
64252;SDS011;50592;52.958;-7.470;2023-03-13T07:29:59;14.38;;;2.10;;
64252;SDS011;50592;52.958;-7.470;2023-03-13T07:32:30;17.27;;;2.70;;
64252;SDS011;50592;52.958;-7.470;2023-03-13T07:35:01;21.70;;;2.85;;
64252;SDS011;50592;52.958;-7.470;2023-03-13T07:37:32;17.13;;;2.65;;
64252;SDS011;50592;52.958;-7.470;2023-03-13T07:40:01;25.23;;;4.38;;
64252;SDS011;50592;52.958;-7.470;2023-03-13T07:42:32;26.20;;;3.67;;
64252;SDS011;50592;52.958;-7.470;2023-03-13T07:45:02;35.30;;;4.15;;
64252;SDS011;50592;52.958;-7.470;2023-03-13T07:47:35;33.53;;;4.40;;
64252;SDS011;50592;52.958;-7.470;2023-03-13T07:50:02;30.75;;;4.45;;
64252;SDS011;50592;52.958;-7.470;2023-03-13T07:52:31;33.33;;;4.38;;
64252;SDS011;50592;52.958;-7.470;2023-03-13T07:54:57;32.42;;;5.32;;
64252;SDS011;50592;52.958;-7.470;2023-03-13T07:57:27;30.65;;;4.78;;
64252;SDS011;50592;52.958;-7.470;2023-03-13T07:59:54;33.85;;;4.10;;
64252;SDS011;50592;52.958;-7.470;2023-03-13T08:02:24;35.72;;;4.38;;
64252;SDS011;50592;52.958;-7.470;2023-03-13T08:04:51;43.45;;;4.88;;
64252;SDS011;50592;52.958;-7.470;2023-03-13T08:07:20;26.23;;;4.40;;
64252;SDS011;50592;52.958;-7.470;2023-03-13T08:09:47;33.05;;;4.70;;
64252;SDS011;50592;52.958;-7.470;2023-03-13T08:12:16;27.77;;;4.35;;
64252;SDS011;50592;52.958;-7.470;2023-03-13T08:14:43;30.77;;;4.35;;
64252;SDS011;50592;52.958;-7.470;2023-03-13T08:17:13;29.25;;;5.05;;
64252;SDS011;50592;52.958;-7.470;2023-03-13T08:19:42;29.83;;;5.20;;
64252;SDS011;50592;52.958;-7.470;2023-03-13T08:22:09;37.38;;;4.80;;
64252;SDS011;50592;52.958;-7.470;2023-03-13T08:24:39;29.60;;;4.53;;
64252;SDS011;50592;52.958;-7.470;2023-03-13T08:27:09;22.02;;;4.18;;
64252;SDS011;50592;52.958;-7.470;2023-03-13T08:29:38;27.75;;;4.47;;
64252;SDS011;50592;52.958;-7.470;2023-03-13T08:32:05;32.65;;;4.80;;
64252;SDS011;50592;52.958;-7.470;2023-03-13T08:34:37;26.75;;;4.22;;
64252;SDS011;50592;52.958;-7.470;2023-03-13T08:37:07;25.42;;;3.60;;
64252;SDS011;50592;52.958;-7.470;2023-03-13T08:39:36;24.70;;;3.58;;
64252;SDS011;50592;52.958;-7.470;2023-03-13T08:42:07;24.63;;;3.70;;
64252;SDS011;50592;52.958;-7.470;2023-03-13T08:44:39;22.92;;;3.47;;
64252;SDS011;50592;52.958;-7.470;2023-03-13T08:47:06;20.55;;;2.72;;
64252;SDS011;50592;52.958;-7.470;2023-03-13T08:49:36;16.95;;;2.97;;
64252;SDS011;50592;52.958;-7.470;2023-03-13T08:52:06;19.63;;;2.75;;
64252;SDS011;50592;52.958;-7.470;2023-03-13T08:54:33;17.75;;;2.80;;
64252;SDS011;50592;52.958;-7.470;2023-03-13T08:57:02;21.40;;;3.35;;
64252;SDS011;50592;52.958;-7.470;2023-03-13T08:59:28;20.00;;;2.65;;
64252;SDS011;50592;52.958;-7.470;2023-03-13T09:01:57;14.35;;;2.00;;
64252;SDS011;50592;52.958;-7.470;2023-03-13T09:04:24;13.60;;;1.85;;
64252;SDS011;50592;52.958;-7.470;2023-03-13T09:06:54;11.95;;;1.70;;
64252;SDS011;50592;52.958;-7.470;2023-03-13T09:09:21;12.40;;;1.77;;
64252;SDS011;50592;52.958;-7.470;2023-03-13T09:11:50;9.80;;;1.77;;
64252;SDS011;50592;52.958;-7.470;2023-03-13T09:14:17;9.35;;;1.45;;
64252;SDS011;50592;52.958;-7.470;2023-03-13T09:16:46;13.68;;;1.67;;
64252;SDS011;50592;52.958;-7.470;2023-03-13T09:19:13;10.93;;;1.77;;
64252;SDS011;50592;52.958;-7.470;2023-03-13T09:21:42;10.95;;;1.73;;
64252;SDS011;50592;52.958;-7.470;2023-03-13T09:24:09;11.00;;;1.63;;
64252;SDS011;50592;52.958;-7.470;2023-03-13T09:26:39;9.93;;;1.55;;
64252;SDS011;50592;52.958;-7.470;2023-03-13T09:29:06;15.98;;;1.42;;
64252;SDS011;50592;52.958;-7.470;2023-03-13T09:31:36;8.82;;;1.27;;
64252;SDS011;50592;52.958;-7.470;2023-03-13T09:34:06;11.02;;;1.50;;
64252;SDS011;50592;52.958;-7.470;2023-03-13T09:36:33;10.23;;;1.23;;
64252;SDS011;50592;52.958;-7.470;2023-03-13T09:39:01;6.00;;;1.10;;
64252;SDS011;50592;52.958;-7.470;2023-03-13T09:41:34;9.07;;;1.20;;
64252;SDS011;50592;52.958;-7.470;2023-03-13T09:44:17;6.63;;;0.80;;
64252;SDS011;50592;52.958;-7.470;2023-03-13T09:46:48;5.80;;;0.68;;
64252;SDS011;50592;52.958;-7.470;2023-03-13T09:52:05;3.33;;;0.50;;
64252;SDS011;50592;52.958;-7.470;2023-03-13T10:00:10;2.47;;;0.30;;
64252;SDS011;50592;52.958;-7.470;2023-03-13T10:05:42;1.20;;;0.20;;
64252;SDS011;50592;52.958;-7.470;2023-03-13T10:08:17;0.88;;;0.22;;
64252;SDS011;50592;52.958;-7.470;2023-03-13T10:10:52;3.30;;;0.30;;
64252;SDS011;50592;52.958;-7.470;2023-03-13T10:16:29;1.02;;;0.10;;
64252;SDS011;50592;52.958;-7.470;2023-03-13T10:19:16;0.00;;;0.00;;
64252;SDS011;50592;52.958;-7.470;2023-03-13T10:21:49;0.57;;;0.10;;
64252;SDS011;50592;52.958;-7.470;2023-03-13T10:26:59;0.10;;;0.10;;
64252;SDS011;50592;52.958;-7.470;2023-03-13T10:29:28;0.13;;;0.00;;
64252;SDS011;50592;52.958;-7.470;2023-03-13T10:31:58;0.10;;;0.10;;
64252;SDS011;50592;52.958;-7.470;2023-03-13T10:34:28;0.15;;;0.10;;
64252;SDS011;50592;52.958;-7.470;2023-03-13T10:37:14;0.63;;;0.20;;
64252;SDS011;50592;52.958;-7.470;2023-03-13T10:39:46;1.00;;;0.20;;
64252;SDS011;50592;52.958;-7.470;2023-03-13T10:42:23;2.08;;;0.20;;
64252;SDS011;50592;52.958;-7.470;2023-03-13T10:44:57;2.10;;;0.40;;
64252;SDS011;50592;52.958;-7.470;2023-03-13T10:47:25;1.23;;;0.28;;
64252;SDS011;50592;52.958;-7.470;2023-03-13T10:49:56;2.28;;;0.30;;
64252;SDS011;50592;52.958;-7.470;2023-03-13T10:55:12;3.80;;;0.45;;
64252;SDS011;50592;52.958;-7.470;2023-03-13T10:57:57;4.22;;;0.73;;
64252;SDS011;50592;52.958;-7.470;2023-03-13T11:00:32;2.95;;;0.55;;
64252;SDS011;50592;52.958;-7.470;2023-03-13T11:03:17;3.90;;;0.55;;
64252;SDS011;50592;52.958;-7.470;2023-03-13T11:05:55;3.97;;;0.80;;
64252;SDS011;50592;52.958;-7.470;2023-03-13T11:08:34;4.45;;;0.80;;
64252;SDS011;50592;52.958;-7.470;2023-03-13T11:11:14;5.00;;;0.77;;
64252;SDS011;50592;52.958;-7.470;2023-03-13T11:13:44;4.78;;;0.57;;
64252;SDS011;50592;52.958;-7.470;2023-03-13T11:16:25;2.88;;;0.50;;
64252;SDS011;50592;52.958;-7.470;2023-03-13T11:32:54;10.13;;;1.30;;
64252;SDS011;50592;52.958;-7.470;2023-03-13T11:35:38;13.95;;;3.38;;
64252;SDS011;50592;52.958;-7.470;2023-03-13T11:44:48;10.10;;;1.63;;
64252;SDS011;50592;52.958;-7.470;2023-03-13T12:00:28;6.15;;;1.08;;
64252;SDS011;50592;52.958;-7.470;2023-03-13T12:05:44;5.90;;;0.80;;
64252;SDS011;50592;52.958;-7.470;2023-03-13T12:08:20;7.22;;;1.02;;
64252;SDS011;50592;52.958;-7.470;2023-03-13T12:13:34;7.80;;;1.13;;
64252;SDS011;50592;52.958;-7.470;2023-03-13T12:16:21;6.43;;;1.00;;
64252;SDS011;50592;52.958;-7.470;2023-03-13T12:18:54;7.30;;;1.02;;
64252;SDS011;50592;52.958;-7.470;2023-03-13T12:21:35;7.65;;;1.30;;
64252;SDS011;50592;52.958;-7.470;2023-03-13T12:30:05;5.97;;;1.00;;
64252;SDS011;50592;52.958;-7.470;2023-03-13T12:35:56;6.60;;;1.40;;
64252;SDS011;50592;52.958;-7.470;2023-03-13T12:38:56;8.88;;;1.23;;
64252;SDS011;50592;52.958;-7.470;2023-03-13T12:44:36;7.55;;;0.95;;
64252;SDS011;50592;52.958;-7.470;2023-03-13T12:47:52;4.25;;;0.98;;
64252;SDS011;50592;52.958;-7.470;2023-03-13T12:53:00;6.68;;;0.95;;
64252;SDS011;50592;52.958;-7.470;2023-03-13T12:58:40;6.53;;;1.02;;
64252;SDS011;50592;52.958;-7.470;2023-03-13T13:01:14;7.13;;;1.10;;
64252;SDS011;50592;52.958;-7.470;2023-03-13T13:03:58;2.08;;;0.73;;
64252;SDS011;50592;52.958;-7.470;2023-03-13T13:06:49;6.30;;;1.08;;
64252;SDS011;50592;52.958;-7.470;2023-03-13T13:09:27;4.07;;;0.82;;
64252;SDS011;50592;52.958;-7.470;2023-03-13T13:11:57;6.75;;;1.02;;
64252;SDS011;50592;52.958;-7.470;2023-03-13T13:17:00;7.93;;;1.42;;
64252;SDS011;50592;52.958;-7.470;2023-03-13T13:32:49;13.45;;;8.38;;
64252;SDS011;50592;52.958;-7.470;2023-03-13T13:35:28;14.75;;;4.60;;
64252;SDS011;50592;52.958;-7.470;2023-03-13T13:40:57;11.88;;;4.40;;
64252;SDS011;50592;52.958;-7.470;2023-03-13T13:43:25;14.55;;;5.28;;
64252;SDS011;50592;52.958;-7.470;2023-03-13T13:46:02;9.73;;;2.47;;
64252;SDS011;50592;52.958;-7.470;2023-03-13T13:48:36;15.73;;;2.38;;
64252;SDS011;50592;52.958;-7.470;2023-03-13T13:56:27;1.38;;;0.43;;
64252;SDS011;50592;52.958;-7.470;2023-03-13T14:01:50;1.38;;;0.20;;
64252;SDS011;50592;52.958;-7.470;2023-03-13T14:07:11;1.05;;;0.38;;
64252;SDS011;50592;52.958;-7.470;2023-03-13T14:15:06;0.45;;;0.17;;
64252;SDS011;50592;52.958;-7.470;2023-03-13T14:17:51;0.30;;;0.30;;
64252;SDS011;50592;52.958;-7.470;2023-03-13T14:20:30;4.03;;;0.43;;
64252;SDS011;50592;52.958;-7.470;2023-03-13T14:23:03;0.68;;;0.30;;
64252;SDS011;50592;52.958;-7.470;2023-03-13T14:25:44;2.83;;;0.82;;
64252;SDS011;50592;52.958;-7.470;2023-03-13T14:30:51;4.90;;;2.40;;
64252;SDS011;50592;52.958;-7.470;2023-03-13T14:33:23;49.88;;;27.85;;
64252;SDS011;50592;52.958;-7.470;2023-03-13T14:35:54;5.95;;;3.33;;
64252;SDS011;50592;52.958;-7.470;2023-03-13T14:38:25;0.75;;;0.30;;
64252;SDS011;50592;52.958;-7.470;2023-03-13T14:40:55;2.30;;;2.10;;
64252;SDS011;50592;52.958;-7.470;2023-03-13T14:45:58;0.90;;;0.50;;
64252;SDS011;50592;52.958;-7.470;2023-03-13T14:48:29;1.50;;;0.40;;
64252;SDS011;50592;52.958;-7.470;2023-03-13T14:51:42;3.08;;;0.40;;
64252;SDS011;50592;52.958;-7.470;2023-03-13T14:53:54;2.90;;;1.00;;
64252;SDS011;50592;52.958;-7.470;2023-03-13T14:56:31;0.85;;;0.40;;
64252;SDS011;50592;52.958;-7.470;2023-03-13T14:59:07;0.68;;;0.20;;
64252;SDS011;50592;52.958;-7.470;2023-03-13T15:01:43;0.43;;;0.32;;
64252;SDS011;50592;52.958;-7.470;2023-03-13T15:04:11;0.32;;;0.17;;
64252;SDS011;50592;52.958;-7.470;2023-03-13T15:06:41;1.02;;;0.47;;
64252;SDS011;50592;52.958;-7.470;2023-03-13T15:09:13;0.75;;;0.38;;
64252;SDS011;50592;52.958;-7.470;2023-03-13T15:11:57;1.05;;;0.30;;
64252;SDS011;50592;52.958;-7.470;2023-03-13T15:17:09;2.15;;;0.43;;
64252;SDS011;50592;52.958;-7.470;2023-03-13T15:19:57;1.25;;;0.40;;
64252;SDS011;50592;52.958;-7.470;2023-03-13T15:22:28;1.33;;;0.90;;
64252;SDS011;50592;52.958;-7.470;2023-03-13T15:25:16;0.52;;;0.32;;
64252;SDS011;50592;52.958;-7.470;2023-03-13T15:27:48;1.00;;;0.40;;
64252;SDS011;50592;52.958;-7.470;2023-03-13T15:30:16;3.53;;;1.25;;
64252;SDS011;50592;52.958;-7.470;2023-03-13T15:32:48;2.95;;;1.08;;
64252;SDS011;50592;52.958;-7.470;2023-03-13T15:37:50;2.30;;;0.70;;
64252;SDS011;50592;52.958;-7.470;2023-03-13T15:40:20;1.00;;;0.40;;
64252;SDS011;50592;52.958;-7.470;2023-03-13T15:42:50;1.77;;;0.30;;
64252;SDS011;50592;52.958;-7.470;2023-03-13T15:45:20;1.80;;;0.45;;
64252;SDS011;50592;52.958;-7.470;2023-03-13T15:47:51;1.40;;;0.55;;
64252;SDS011;50592;52.958;-7.470;2023-03-13T15:50:21;0.90;;;0.57;;
64252;SDS011;50592;52.958;-7.470;2023-03-13T15:55:26;1.70;;;0.52;;
64252;SDS011;50592;52.958;-7.470;2023-03-13T15:57:57;1.52;;;0.30;;
64252;SDS011;50592;52.958;-7.470;2023-03-13T16:00:27;3.45;;;0.63;;
64252;SDS011;50592;52.958;-7.470;2023-03-13T16:02:57;2.95;;;0.65;;
64252;SDS011;50592;52.958;-7.470;2023-03-13T16:05:30;3.85;;;0.70;;
64252;SDS011;50592;52.958;-7.470;2023-03-13T16:07:57;2.05;;;0.70;;
64252;SDS011;50592;52.958;-7.470;2023-03-13T16:10:27;6.43;;;1.40;;
64252;SDS011;50592;52.958;-7.470;2023-03-13T16:12:54;4.43;;;1.00;;
64252;SDS011;50592;52.958;-7.470;2023-03-13T16:15:24;3.88;;;2.67;;
64252;SDS011;50592;52.958;-7.470;2023-03-13T16:17:51;5.65;;;3.05;;
64252;SDS011;50592;52.958;-7.470;2023-03-13T16:20:26;5.68;;;2.38;;
64252;SDS011;50592;52.958;-7.470;2023-03-13T16:22:56;2.83;;;1.30;;
64252;SDS011;50592;52.958;-7.470;2023-03-13T16:25:31;3.08;;;0.85;;
64252;SDS011;50592;52.958;-7.470;2023-03-13T16:28:01;8.13;;;0.98;;
64252;SDS011;50592;52.958;-7.470;2023-03-13T16:30:31;5.72;;;0.80;;
64252;SDS011;50592;52.958;-7.470;2023-03-13T16:32:59;3.33;;;0.75;;
64252;SDS011;50592;52.958;-7.470;2023-03-13T16:35:28;3.60;;;0.77;;
64252;SDS011;50592;52.958;-7.470;2023-03-13T16:37:55;9.00;;;0.90;;
64252;SDS011;50592;52.958;-7.470;2023-03-13T16:40:30;4.78;;;1.00;;
64252;SDS011;50592;52.958;-7.470;2023-03-13T16:43:01;1.38;;;0.50;;
64252;SDS011;50592;52.958;-7.470;2023-03-13T16:45:28;6.15;;;0.70;;
64252;SDS011;50592;52.958;-7.470;2023-03-13T16:47:58;5.07;;;1.15;;
64252;SDS011;50592;52.958;-7.470;2023-03-13T16:50:30;3.35;;;0.60;;
64252;SDS011;50592;52.958;-7.470;2023-03-13T16:53:02;5.43;;;0.52;;
64252;SDS011;50592;52.958;-7.470;2023-03-13T16:55:32;2.92;;;0.75;;
64252;SDS011;50592;52.958;-7.470;2023-03-13T16:58:04;4.47;;;1.15;;
64252;SDS011;50592;52.958;-7.470;2023-03-13T17:00:34;4.03;;;0.68;;
64252;SDS011;50592;52.958;-7.470;2023-03-13T17:03:02;1.52;;;0.52;;
64252;SDS011;50592;52.958;-7.470;2023-03-13T17:05:32;2.15;;;0.55;;
64252;SDS011;50592;52.958;-7.470;2023-03-13T17:07:58;3.22;;;0.68;;
64252;SDS011;50592;52.958;-7.470;2023-03-13T17:10:28;3.42;;;0.95;;
64252;SDS011;50592;52.958;-7.470;2023-03-13T17:12:56;1.15;;;0.65;;
64252;SDS011;50592;52.958;-7.470;2023-03-13T17:15:25;5.30;;;0.98;;
64252;SDS011;50592;52.958;-7.470;2023-03-13T17:17:52;7.18;;;1.67;;
64252;SDS011;50592;52.958;-7.470;2023-03-13T17:20:23;4.82;;;1.15;;
64252;SDS011;50592;52.958;-7.470;2023-03-13T17:22:55;5.47;;;1.00;;